Latest Coastal Weather Observations for Aireys Inlet

IDV60701

Issued at 12:21 am EST Thursday 30 June 2016 (issued every 10 minutes, with the page automatically refreshed every 10 minutes)

About coastal observations | Map of coastal stations | Coastal observations for VIC | Marine services | Other Formats
Station Details ID: 090180 Name: AIREYS INLET Lat: -38.46 Lon: 144.09 Height: 105.0 m
Data from the previous 72 hours. | See also: Recent months at Aireys Inlet
Date/Time
EST
Temp
°C
Wind Pressure Rain since
9am
mm
Weather Cloud Vis
km
Sea
Height
m
Swell
Dir  Spd
kts
Gust
kts
hPa Trend Height
m
Period
s
Dir
30/12:00am 10.4 NNE 10 17 - - 0.0 - - - - - - -
 
Date/Time
EST
Temp
°C
Wind Pressure Rain since
9am
mm
Weather Cloud Vis
km
Sea
Height
m
Swell
Dir  Spd
kts
Gust
kts
hPa Trend Height
m
Period
s
Dir
29/11:30pm 10.4 N 11 19 - - 0.0 - - - - - - -
29/11:00pm 10.5 N 12 20 - - 0.0 - - - - - - -
29/10:30pm 10.4 NNE 11 17 - - 0.0 - - - - - - -
29/10:00pm 10.0 NNE 9 13 - - 0.0 - - - - - - -
29/09:30pm 9.8 N 10 13 - - 0.0 - - - - - - -
29/09:00pm 9.4 N 10 14 - - 0.0 - - - - - - -
29/08:30pm 9.3 N 9 15 - - 0.0 - - - - - - -
29/08:00pm 9.7 N 10 15 - - 0.0 - - - - - - -
29/07:30pm 9.9 N 11 20 - - 0.0 - - - - - - -
29/07:00pm 10.2 N 12 18 - - 0.0 - - - - - - -
29/06:30pm 10.5 N 12 19 - - 0.0 - - - - - - -
29/06:00pm 10.8 N 13 21 - - 0.0 - - - - - - -
29/05:30pm 11.2 N 14 21 - - 0.0 - - - - - - -
29/05:00pm 11.7 N 12 18 - - 0.0 - - - - - - -
29/04:30pm 12.7 N 13 21 - - 0.0 - - - - - - -
29/04:00pm 13.3 N 10 16 - - 0.0 - - - - - - -
29/03:30pm 13.2 N 13 20 - - 0.0 - - - - - - -
29/03:14pm 13.5 NNW 15 27 - - 0.0 - - - - - - -
29/03:00pm 13.4 N 14 25 - - 0.0 - - - - - - -
29/02:30pm 13.5 NNW 11 21 - - 0.0 - - - - - - -
29/02:00pm 13.8 NNW 11 18 - - 0.0 - - - - - - -
29/01:30pm 14.1 NW 9 15 - - 0.0 - - - - - - -
29/01:00pm 14.5 NNW 13 20 - - 0.0 - - - - - - -
29/12:30pm 14.8 NNW 10 19 - - 0.0 - - - - - - -
29/12:00pm 13.7 NNW 10 19 - - 0.0 - - - - - - -
29/11:30am 13.4 NNW 10 19 - - 0.0 - - - - - - -
29/11:00am 13.3 NW 10 15 - - 0.0 - - - - - - -
29/10:30am 12.6 NW 12 18 - - 0.0 - - - - - - -
29/10:00am 11.4 NW 10 15 - - 0.0 - - - - - - -
29/09:30am 10.3 NW 14 18 - - 0.0 - - - - - - -
29/09:00am 9.6 NW 13 18 - - 0.0 - - - - - - -
29/08:30am 9.3 NW 16 23 - - 0.0 - - - - - - -
29/08:00am 9.3 NW 14 21 - - 0.0 - - - - - - -
29/07:30am 9.2 NW 14 19 - - 0.0 - - - - - - -
29/07:00am 9.3 NW 12 19 - - 0.0 - - - - - - -
29/06:30am 9.3 NW 12 16 - - 0.0 - - - - - - -
29/06:00am 10.0 NW 15 21 - - 0.0 - - - - - - -
29/05:30am 9.6 NW 11 16 - - 0.0 - - - - - - -
29/05:00am 9.8 NW 12 16 - - 0.0 - - - - - - -
29/04:30am 9.8 NW 13 18 - - 0.0 - - - - - - -
29/04:00am 10.0 NW 14 19 - - 0.0 - - - - - - -
29/03:30am 10.2 NW 15 22 - - 0.0 - - - - - - -
29/03:00am 10.3 NW 16 21 - - 0.0 - - - - - - -
29/02:30am 10.5 NW 10 15 - - 0.0 - - - - - - -
29/02:00am 10.9 NW 11 15 - - 0.0 - - - - - - -
29/01:30am 10.9 NW 11 15 - - 0.0 - - - - - - -
29/01:00am 10.9 NW 11 16 - - 0.0 - - - - - - -
29/12:30am 11.1 NW 11 17 - - 0.0 - - - - - - -
29/12:00am 11.1 NW 11 17 - - 0.0 - - - - - - -
 
Date/Time
EST
Temp
°C
Wind Pressure Rain since
9am
mm
Weather Cloud Vis
km
Sea
Height
m
Swell
Dir  Spd
kts
Gust
kts
hPa Trend Height
m
Period
s
Dir
28/11:30pm 11.3 NW 12 18 - - 0.0 - - - - - - -
28/11:00pm 11.4 NW 12 17 - - 0.0 - - - - - - -
28/10:30pm 11.4 NW 13 19 - - 0.0 - - - - - - -
28/10:00pm 11.3 NW 13 18 - - 0.0 - - - - - - -
28/09:30pm 11.6 NW 13 18 - - 0.0 - - - - - - -
28/09:00pm 11.8 NW 13 20 - - 0.0 - - - - - - -
28/08:30pm 11.9 NW 13 18 - - 0.0 - - - - - - -
28/08:00pm 12.2 NNW 12 19 - - 0.0 - - - - - - -
28/07:30pm 12.4 NW 10 14 - - 0.0 - - - - - - -
28/07:00pm 12.7 NW 12 16 - - 0.0 - - - - - - -
28/06:30pm 12.4 NW 11 17 - - 0.0 - - - - - - -
28/06:00pm 12.4 NW 10 16 - - 0.0 - - - - - - -
28/05:30pm 12.6 NW 7 10 - - 0.0 - - - - - - -
28/05:00pm 13.0 NW 8 11 - - 0.0 - - - - - - -
28/04:30pm 13.2 NW 11 15 - - 0.0 - - - - - - -
28/04:00pm 13.6 NW 7 10 - - 0.0 - - - - - - -
28/03:30pm 13.8 WNW 8 13 - - 0.0 - - - - - - -
28/03:00pm 13.5 NW 9 12 - - 0.0 - - - - - - -
28/02:30pm 14.6 WNW 7 12 - - 0.0 - - - - - - -
28/02:00pm 13.1 NW 7 13 - - 0.0 - - - - - - -
28/01:30pm 12.9 WNW 5 8 - - 0.0 - - - - - - -
28/01:00pm 12.5 NW 8 14 - - 0.0 - - - - - - -
28/12:30pm 12.3 NW 12 17 - - 0.0 - - - - - - -
28/12:00pm 12.1 NW 8 14 - - 0.0 - - - - - - -
28/11:30am 10.8 NW 4 7 - - 0.0 - - - - - - -
28/11:00am 10.5 NW 7 12 - - 0.0 - - - - - - -
28/10:30am 10.2 NW 5 8 - - 0.0 - - - - - - -
28/10:00am 9.7 NW 7 12 - - 0.0 - - - - - - -
28/09:30am 9.2 NW 9 14 - - 0.0 - - - - - - -
28/09:00am 9.2 NW 14 22 - - 0.0 - - - - - - -
28/08:30am 8.7 NW 12 20 - - 0.0 - - - - - - -
28/08:00am 8.4 NW 11 20 - - 0.0 - - - - - - -
28/07:30am 8.1 NW 15 23 - - 0.0 - - - - - - -
28/07:00am 8.1 NW 7 17 - - 0.0 - - - - - - -
28/06:30am 8.3 NW 10 17 - - 0.0 - - - - - - -
28/06:00am 8.2 NW 8 13 - - 0.0 - - - - - - -
28/05:30am 8.6 NW 14 21 - - 0.0 - - - - - - -
28/05:00am 8.3 NW 11 17 - - 0.0 - - - - - - -
28/04:30am 7.8 NW 7 15 - - 0.0 - - - - - - -
28/04:01am 7.6 NW 17 28 - - 0.0 - - - - - - -
28/04:00am 7.7 NW 18 28 - - 0.0 - - - - - - -
28/03:30am 7.5 NW 17 27 - - 0.0 - - - - - - -
28/03:28am 7.5 NW 17 27 - - 0.0 - - - - - - -
28/03:00am 7.5 NW 14 21 - - 0.0 - - - - - - -
28/02:30am 7.8 NW 13 19 - - 0.0 - - - - - - -
28/02:00am 7.5 NW 12 17 - - 0.0 - - - - - - -
28/01:30am 7.5 NW 11 19 - - 0.0 - - - - - - -
28/01:00am 7.5 NW 16 22 - - 0.0 - - - - - - -
28/12:30am 7.3 NW 14 19 - - 0.0 - - - - - - -
28/12:00am 7.9 NW 14 19 - - 0.0 - - - - - - -
 
Date/Time
EST
Temp
°C
Wind Pressure Rain since
9am
mm
Weather Cloud Vis
km
Sea
Height
m
Swell
Dir  Spd
kts
Gust
kts
hPa Trend Height
m
Period
s
Dir
27/11:30pm 8.2 NW 12 20 - - 0.0 - - - - - - -
27/11:00pm 8.5 NW 13 20 - - 0.0 - - - - - - -
27/10:30pm 8.5 NW 12 16 - - 0.0 - - - - - - -
27/10:00pm 8.3 NW 9 13 - - 0.0 - - - - - - -
27/09:30pm 8.5 NW 8 11 - - 0.0 - - - - - - -
27/09:00pm 9.1 NW 8 12 - - 0.0 - - - - - - -
27/08:30pm 8.9 NW 10 13 - - 0.0 - - - - - - -
27/08:00pm 8.7 NW 11 14 - - 0.0 - - - - - - -
27/07:30pm 8.5 NW 10 11 - - 0.0 - - - - - - -
27/07:00pm 9.4 NW 10 13 - - 0.0 - - - - - - -
27/06:30pm 9.8 NW 10 15 - - 0.0 - - - - - - -
27/06:00pm 9.6 NW 9 11 - - 0.0 - - - - - - -
27/05:30pm 10.1 WNW 8 11 - - 0.0 - - - - - - -
27/05:00pm 10.4 WNW 7 10 - - 0.0 - - - - - - -
27/04:30pm 10.7 WNW 7 9 - - 0.0 - - - - - - -
27/04:00pm 10.8 WNW 7 10 - - 0.0 - - - - - - -
27/03:30pm 11.4 WNW 7 12 - - 0.0 - - - - - - -
27/03:00pm 11.1 WNW 9 13 - - 0.0 - - - - - - -
27/02:30pm 11.4 WNW 8 14 - - 0.0 - - - - - - -
27/02:00pm 11.7 NW 9 13 - - 0.0 - - - - - - -
27/01:30pm 11.3 WNW 8 13 - - 0.0 - - - - - - -
27/01:00pm 11.8 W 7 13 - - 0.0 - - - - - - -
27/12:30pm 9.3 NW 9 14 - - 0.0 - - - - - - -
27/12:00pm 9.0 NW 10 16 - - 0.0 - - - - - - -
27/11:30am 9.4 NW 11 16 - - 0.0 - - - - - - -
27/11:00am 8.8 NW 10 15 - - 0.0 - - - - - - -
27/10:30am 8.5 WNW 14 20 - - 0.0 - - - - - - -
27/10:00am 7.9 WNW 12 17 - - 0.0 - - - - - - -
27/09:30am 7.5 WNW 15 22 - - 0.0 - - - - - - -
27/09:00am 7.2 NW 18 26 - - 0.0 - - - - - - -
27/08:51am 7.1 NW 16 26 - - 0.0 - - - - - - -
27/08:30am 7.1 NW 14 23 - - 0.0 - - - - - - -
27/08:00am 7.0 NW 7 14 - - 0.0 - - - - - - -
27/07:30am 7.0 NW 17 30 - - 0.0 - - - - - - -
27/07:08am 7.1 NW 16 26 - - 0.0 - - - - - - -
27/07:00am 7.1 NW 15 24 - - 0.0 - - - - - - -
27/06:42am 7.2 NW 16 29 - - 0.0 - - - - - - -
27/06:30am 7.2 NW 20 27 - - 0.0 - - - - - - -
27/06:01am 7.3 NW 18 29 - - 0.0 - - - - - - -
27/06:00am 7.3 NW 17 25 - - 0.0 - - - - - - -
27/05:32am 6.9 NW 20 30 - - 0.0 - - - - - - -
27/05:30am 6.9 NW 21 30 - - 0.0 - - - - - - -
27/05:07am 6.9 NW 19 29 - - 0.0 - - - - - - -
27/05:00am 7.0 NW 20 29 - - 0.0 - - - - - - -
27/04:30am 7.1 NW 21 29 - - 0.0 - - - - - - -
27/04:00am 7.4 NW 20 33 - - 0.0 - - - - - - -
27/03:37am 7.5 NW 21 31 - - 0.0 - - - - - - -
27/03:30am 7.3 NW 20 29 - - 0.0 - - - - - - -
27/03:00am 7.1 NW 19 28 - - 0.0 - - - - - - -
27/02:30am 7.0 NW 20 28 - - 0.0 - - - - - - -
27/02:18am 6.9 NW 19 29 - - 0.0 - - - - - - -
27/02:00am 7.1 NW 20 29 - - 0.0 - - - - - - -
27/01:32am 7.3 NW 19 29 - - 0.0 - - - - - - -
27/01:30am 7.2 NW 19 29 - - 0.0 - - - - - - -
27/01:00am 7.0 NW 19 27 - - 0.0 - - - - - - -
27/12:50am 7.0 NW 20 30 - - 0.0 - - - - - - -
27/12:30am 6.9 NW 21 29 - - 0.0 - - - - - - -

Other Formats:

Comma delimited format used in spreadsheet applications
http://www.bom.gov.au/fwo/IDV60701/IDV60701.94846.axf

JavaScript Object Notation format (JSON) in row-major order
http://www.bom.gov.au/fwo/IDV60701/IDV60701.94846.json